Time;durP1;ratioP1;P1;durP2;ratioP2;P2;SDS_P1;SDS_P2;PMS_P1;PMS_P2;Temp;Humidity;BMP_temperature;BMP_pressure;BME280_temperature;BME280_humidity;BME280_pressure;Samples;Min_cycle;Max_cycle;Signal;HPM_P1;HPM_P2
2021/08/18 00:00:43;;;;;;;2.55;2.10;;;;;;;;;;5049747;28;20226;-83
2021/08/18 00:03:09;;;;;;;3.15;1.90;;;;;;;;;;5059324;28;20177;-85
2021/08/18 00:05:35;;;;;;;6.18;2.85;;;;;;;;;;5044439;28;20166;-84
2021/08/18 00:08:02;;;;;;;3.50;2.10;;;;;;;;;;5049846;28;20174;-83
2021/08/18 00:10:29;;;;;;;2.95;2.10;;;;;;;;;;5052860;28;20658;-81
2021/08/18 00:12:55;;;;;;;2.42;2.15;;;;;;;;;;5054232;28;20181;-83
2021/08/18 00:15:21;;;;;;;4.53;2.20;;;;;;;;;;5042452;28;20189;-84
2021/08/18 00:17:48;;;;;;;2.75;2.22;;;;;;;;;;5057723;28;20217;-84
2021/08/18 00:20:14;;;;;;;4.28;2.10;;;;;;;;;;5057295;28;20212;-82
2021/08/18 00:22:40;;;;;;;5.07;2.83;;;;;;;;;;5048627;28;20189;-84
2021/08/18 00:25:06;;;;;;;4.60;2.00;;;;;;;;;;5054685;28;20181;-83
2021/08/18 00:27:32;;;;;;;5.57;2.38;;;;;;;;;;5054815;28;20193;-84
2021/08/18 00:29:58;;;;;;;2.72;2.00;;;;;;;;;;5059558;28;20188;-84
2021/08/18 00:32:24;;;;;;;4.43;2.40;;;;;;;;;;5044967;28;20213;-82
2021/08/18 00:34:51;;;;;;;2.70;2.50;;;;;;;;;;5048484;28;20412;-83
2021/08/18 00:37:17;;;;;;;3.95;2.47;;;;;;;;;;5054474;28;20189;-83
2021/08/18 00:39:43;;;;;;;3.47;2.20;;;;;;;;;;5054355;28;20212;-83
2021/08/18 00:42:09;;;;;;;3.20;2.00;;;;;;;;;;5046307;28;20180;-84
2021/08/18 00:44:35;;;;;;;2.10;1.88;;;;;;;;;;5058539;28;20192;-83
2021/08/18 00:47:01;;;;;;;3.65;2.00;;;;;;;;;;5049203;28;20205;-83
2021/08/18 00:49:28;;;;;;;5.03;2.83;;;;;;;;;;5048381;28;20185;-83
2021/08/18 00:51:54;;;;;;;4.10;1.88;;;;;;;;;;5047131;28;20184;-84
2021/08/18 00:54:20;;;;;;;3.00;2.40;;;;;;;;;;5042852;28;20658;-82
2021/08/18 00:56:46;;;;;;;3.60;2.00;;;;;;;;;;5041843;28;20191;-84
2021/08/18 00:59:13;;;;;;;3.50;2.90;;;;;;;;;;5050147;28;20463;-84
2021/08/18 01:01:40;;;;;;;3.90;2.50;;;;;;;;;;5048894;28;20288;-84
2021/08/18 01:04:06;;;;;;;2.95;2.65;;;;;;;;;;5052590;28;20185;-83
2021/08/18 01:06:34;;;;;;;5.63;2.30;;;;;;;;;;5055256;28;20188;-84
2021/08/18 01:09:00;;;;;;;6.00;2.45;;;;;;;;;;5042454;28;20187;-84
2021/08/18 01:11:26;;;;;;;3.78;2.25;;;;;;;;;;5061528;28;20204;-83
2021/08/18 01:13:52;;;;;;;5.25;2.65;;;;;;;;;;5047859;28;20224;-83
2021/08/18 01:16:18;;;;;;;4.97;2.50;;;;;;;;;;5045842;28;20194;-83
2021/08/18 01:18:44;;;;;;;6.25;2.65;;;;;;;;;;5045656;28;20476;-84
2021/08/18 01:21:10;;;;;;;5.13;2.58;;;;;;;;;;5044648;28;20183;-84
2021/08/18 01:23:36;;;;;;;4.87;2.20;;;;;;;;;;5044077;28;20237;-83
2021/08/18 01:26:02;;;;;;;4.80;2.33;;;;;;;;;;5048191;28;20417;-83
2021/08/18 01:28:29;;;;;;;3.15;2.38;;;;;;;;;;5054561;28;20268;-84
2021/08/18 01:30:55;;;;;;;5.72;2.80;;;;;;;;;;5052121;28;20204;-83
2021/08/18 01:33:21;;;;;;;2.90;2.05;;;;;;;;;;5046686;28;20556;-83
2021/08/18 01:35:50;;;;;;;2.25;1.85;;;;;;;;;;5041078;28;20189;-83
2021/08/18 01:38:17;;;;;;;3.33;2.30;;;;;;;;;;5055356;28;20200;-84
2021/08/18 01:40:47;;;;;;;6.95;2.83;;;;;;;;;;5053741;28;20205;-84
2021/08/18 01:43:13;;;;;;;3.63;2.45;;;;;;;;;;5045477;28;20182;-84
2021/08/18 01:45:41;;;;;;;4.45;2.30;;;;;;;;;;5046084;28;20185;-83
2021/08/18 01:48:08;;;;;;;3.33;2.00;;;;;;;;;;5043556;28;20692;-83
2021/08/18 01:50:34;;;;;;;3.95;2.25;;;;;;;;;;5042599;28;20658;-84
2021/08/18 01:53:00;;;;;;;4.88;2.38;;;;;;;;;;5047352;28;20172;-83
2021/08/18 01:55:27;;;;;;;2.87;1.93;;;;;;;;;;5045985;28;20193;-84
2021/08/18 01:57:57;;;;;;;6.68;2.20;;;;;;;;;;5045793;28;20428;-84
2021/08/18 02:00:23;;;;;;;5.00;2.50;;;;;;;;;;5057376;28;20189;-84
2021/08/18 02:02:49;;;;;;;5.07;1.93;;;;;;;;;;5039104;28;20193;-83
2021/08/18 02:05:15;;;;;;;3.53;1.80;;;;;;;;;;5058146;28;20441;-83
2021/08/18 02:07:41;;;;;;;6.15;2.60;;;;;;;;;;5046214;28;20177;-84
2021/08/18 02:10:12;;;;;;;8.10;2.70;;;;;;;;;;5048306;28;20260;-84
2021/08/18 02:12:38;;;;;;;3.42;1.88;;;;;;;;;;5054168;28;20177;-82
2021/08/18 02:15:05;;;;;;;3.45;2.25;;;;;;;;;;5042037;28;20187;-83
2021/08/18 02:17:31;;;;;;;4.53;2.53;;;;;;;;;;5060161;28;20250;-84
2021/08/18 02:19:57;;;;;;;3.47;1.98;;;;;;;;;;5070721;28;20233;-83
2021/08/18 02:22:23;;;;;;;4.93;2.30;;;;;;;;;;5047553;28;20196;-84
2021/08/18 02:24:49;;;;;;;6.40;2.33;;;;;;;;;;5044883;28;20519;-84
2021/08/18 02:27:15;;;;;;;3.93;2.10;;;;;;;;;;5038844;28;20436;-83
2021/08/18 02:29:41;;;;;;;3.37;1.97;;;;;;;;;;5055848;28;20433;-84
2021/08/18 02:32:07;;;;;;;4.50;2.97;;;;;;;;;;5061716;28;20431;-85
2021/08/18 02:34:33;;;;;;;1.85;1.75;;;;;;;;;;5052428;28;20506;-84
2021/08/18 02:36:59;;;;;;;4.23;1.80;;;;;;;;;;5051453;28;20208;-84
2021/08/18 02:39:25;;;;;;;4.60;2.20;;;;;;;;;;5045212;28;20546;-84
2021/08/18 02:41:51;;;;;;;3.55;2.10;;;;;;;;;;5040482;28;20225;-83
2021/08/18 02:44:17;;;;;;;2.67;2.47;;;;;;;;;;5047166;28;20649;-82
2021/08/18 02:46:43;;;;;;;4.03;2.40;;;;;;;;;;5046128;28;20429;-84
2021/08/18 02:49:09;;;;;;;4.45;1.80;;;;;;;;;;5052614;28;20185;-84
2021/08/18 02:51:35;;;;;;;3.55;2.38;;;;;;;;;;5052122;28;20192;-84
2021/08/18 02:54:01;;;;;;;3.43;2.10;;;;;;;;;;5044249;28;20218;-83
2021/08/18 02:56:27;;;;;;;5.43;2.63;;;;;;;;;;5057671;28;20486;-83
2021/08/18 02:58:53;;;;;;;3.53;2.00;;;;;;;;;;5043805;28;20463;-84
2021/08/18 03:01:19;;;;;;;3.53;2.07;;;;;;;;;;5045651;28;20463;-84
2021/08/18 03:03:45;;;;;;;5.88;2.35;;;;;;;;;;5044985;28;20435;-84
2021/08/18 03:06:11;;;;;;;3.47;1.93;;;;;;;;;;5044320;28;20177;-84
2021/08/18 03:08:37;;;;;;;5.18;2.15;;;;;;;;;;5041709;28;20450;-84
2021/08/18 03:11:03;;;;;;;4.45;2.22;;;;;;;;;;5046152;28;20170;-84
2021/08/18 03:13:30;;;;;;;3.30;2.08;;;;;;;;;;5050205;28;20562;-82
2021/08/18 03:15:56;;;;;;;4.55;2.13;;;;;;;;;;5051038;28;20210;-84
2021/08/18 03:18:22;;;;;;;6.75;2.90;;;;;;;;;;5048668;28;20239;-84
2021/08/18 03:20:48;;;;;;;5.77;2.60;;;;;;;;;;5043300;28;20181;-84
2021/08/18 03:23:14;;;;;;;3.03;2.30;;;;;;;;;;5056924;28;20924;-85
2021/08/18 03:25:40;;;;;;;4.10;2.53;;;;;;;;;;5059423;28;20519;-84
2021/08/18 03:28:06;;;;;;;3.73;2.27;;;;;;;;;;5054388;28;20201;-82
2021/08/18 03:30:32;;;;;;;5.05;1.90;;;;;;;;;;5049121;28;20453;-83
2021/08/18 03:32:58;;;;;;;4.63;2.77;;;;;;;;;;5043838;28;20210;-84
2021/08/18 03:35:24;;;;;;;4.70;2.60;;;;;;;;;;5048085;28;20950;-83
2021/08/18 03:37:51;;;;;;;3.70;2.30;;;;;;;;;;5061024;28;20425;-84
2021/08/18 03:40:18;;;;;;;4.88;2.50;;;;;;;;;;5044164;28;20202;-85
2021/08/18 03:42:44;;;;;;;4.30;2.67;;;;;;;;;;5047010;28;20219;-83
2021/08/18 03:45:10;;;;;;;4.28;2.80;;;;;;;;;;5060093;28;20169;-84
2021/08/18 03:47:38;;;;;;;6.25;2.40;;;;;;;;;;5044077;28;20422;-83
2021/08/18 03:50:04;;;;;;;5.57;2.35;;;;;;;;;;5059673;28;20169;-84
2021/08/18 03:52:30;;;;;;;2.75;2.42;;;;;;;;;;5050064;28;20182;-85
2021/08/18 03:54:56;;;;;;;3.37;2.50;;;;;;;;;;5048374;28;20247;-83
2021/08/18 03:57:22;;;;;;;7.20;2.40;;;;;;;;;;5049147;28;20439;-84
2021/08/18 03:59:48;;;;;;;3.37;2.20;;;;;;;;;;5058687;28;20205;-84
2021/08/18 04:02:14;;;;;;;3.90;2.65;;;;;;;;;;5049248;28;20455;-83
2021/08/18 04:04:40;;;;;;;5.72;2.33;;;;;;;;;;5047989;28;20191;-85
2021/08/18 04:07:06;;;;;;;6.33;2.97;;;;;;;;;;5047735;28;20220;-84
2021/08/18 04:09:32;;;;;;;4.93;2.72;;;;;;;;;;5044577;28;20447;-84
2021/08/18 04:11:58;;;;;;;3.22;2.40;;;;;;;;;;5058964;28;20178;-84
2021/08/18 04:14:24;;;;;;;5.50;2.57;;;;;;;;;;5059864;28;20568;-83
2021/08/18 04:16:50;;;;;;;5.07;2.90;;;;;;;;;;5056133;28;20431;-84
2021/08/18 04:19:16;;;;;;;3.23;2.50;;;;;;;;;;5045671;28;20206;-84
2021/08/18 04:21:42;;;;;;;3.50;2.13;;;;;;;;;;5046252;28;20428;-84
2021/08/18 04:24:08;;;;;;;5.53;2.20;;;;;;;;;;5046016;28;20893;-84
2021/08/18 04:26:34;;;;;;;3.22;2.13;;;;;;;;;;5060214;28;20583;-83
2021/08/18 04:29:00;;;;;;;4.73;2.77;;;;;;;;;;5048517;28;20200;-84
2021/08/18 04:31:26;;;;;;;2.40;2.30;;;;;;;;;;5047636;28;20475;-84
2021/08/18 04:33:52;;;;;;;9.20;4.77;;;;;;;;;;5047920;28;20193;-84
2021/08/18 04:36:18;;;;;;;6.85;2.88;;;;;;;;;;5047115;28;20435;-85
2021/08/18 04:38:44;;;;;;;9.77;2.80;;;;;;;;;;5040962;28;20220;-84
2021/08/18 04:41:10;;;;;;;3.40;2.50;;;;;;;;;;5049596;28;20252;-84
2021/08/18 04:43:36;;;;;;;2.57;2.37;;;;;;;;;;5047637;28;20436;-83
2021/08/18 04:46:02;;;;;;;4.63;2.65;;;;;;;;;;5047339;28;20448;-84
2021/08/18 04:48:28;;;;;;;3.65;2.60;;;;;;;;;;5042863;28;20216;-84
2021/08/18 04:50:54;;;;;;;7.20;2.72;;;;;;;;;;5043982;28;20215;-84
2021/08/18 04:53:20;;;;;;;4.70;2.63;;;;;;;;;;5047461;28;20256;-83
2021/08/18 04:55:46;;;;;;;5.07;2.45;;;;;;;;;;5048244;28;20250;-83
2021/08/18 04:58:12;;;;;;;3.40;2.20;;;;;;;;;;5045861;28;20186;-84
2021/08/18 05:00:38;;;;;;;6.10;2.60;;;;;;;;;;5048347;28;20177;-82
2021/08/18 05:03:04;;;;;;;5.07;2.55;;;;;;;;;;5043482;28;20437;-84
2021/08/18 05:05:30;;;;;;;3.90;2.10;;;;;;;;;;5045020;28;20181;-81
2021/08/18 05:07:58;;;;;;;4.45;2.30;;;;;;;;;;5061457;28;20169;-84
2021/08/18 05:10:24;;;;;;;6.78;2.40;;;;;;;;;;5050137;28;20182;-84
2021/08/18 05:12:50;;;;;;;4.70;2.55;;;;;;;;;;5046469;28;20189;-83
2021/08/18 05:15:16;;;;;;;3.97;2.23;;;;;;;;;;5042153;28;20232;-83
2021/08/18 05:17:44;;;;;;;3.15;2.20;;;;;;;;;;5057791;28;20468;-84
2021/08/18 05:20:10;;;;;;;5.90;2.80;;;;;;;;;;5048681;28;20205;-83
2021/08/18 05:22:36;;;;;;;3.25;2.05;;;;;;;;;;5052665;28;20189;-84
2021/08/18 05:25:04;;;;;;;4.97;3.00;;;;;;;;;;5052411;28;20627;-84
2021/08/18 05:27:30;;;;;;;4.47;2.60;;;;;;;;;;5048331;28;20443;-84
2021/08/18 05:29:56;;;;;;;3.90;2.30;;;;;;;;;;5058013;28;20193;-84
2021/08/18 05:32:22;;;;;;;2.87;2.67;;;;;;;;;;5058293;28;20447;-84
2021/08/18 05:34:48;;;;;;;3.47;2.30;;;;;;;;;;5058806;28;20466;-84
2021/08/18 05:37:14;;;;;;;4.85;2.63;;;;;;;;;;5049337;28;20214;-81
2021/08/18 05:39:40;;;;;;;2.70;2.13;;;;;;;;;;5046199;28;20215;-84
2021/08/18 05:42:06;;;;;;;4.80;2.27;;;;;;;;;;5045613;28;20475;-85
2021/08/18 05:44:32;;;;;;;4.13;2.38;;;;;;;;;;5044177;28;20415;-83
2021/08/18 05:46:58;;;;;;;3.13;2.38;;;;;;;;;;5058812;28;20169;-84
2021/08/18 05:49:24;;;;;;;4.03;2.75;;;;;;;;;;5048903;28;20185;-84
2021/08/18 05:51:51;;;;;;;3.50;2.40;;;;;;;;;;5045184;28;20257;-80
2021/08/18 05:54:17;;;;;;;5.55;2.75;;;;;;;;;;5058511;28;20216;-84
2021/08/18 05:56:43;;;;;;;2.88;2.55;;;;;;;;;;5041239;28;20182;-84
2021/08/18 05:59:09;;;;;;;3.05;2.25;;;;;;;;;;5047525;28;20205;-85
2021/08/18 06:01:36;;;;;;;3.47;2.47;;;;;;;;;;5045911;28;20193;-84
2021/08/18 06:04:02;;;;;;;2.30;2.10;;;;;;;;;;5052215;28;20208;-83
2021/08/18 06:06:28;;;;;;;3.10;2.40;;;;;;;;;;5055456;28;20181;-85
2021/08/18 06:08:55;;;;;;;3.05;2.50;;;;;;;;;;5040238;28;20189;-83
2021/08/18 06:11:21;;;;;;;3.17;2.20;;;;;;;;;;5046259;28;20177;-83
2021/08/18 06:13:47;;;;;;;5.07;2.92;;;;;;;;;;5046573;28;20178;-84
2021/08/18 06:16:13;;;;;;;3.80;2.60;;;;;;;;;;5045825;28;20185;-83
2021/08/18 06:18:39;;;;;;;5.25;2.30;;;;;;;;;;5042666;28;20483;-84
2021/08/18 06:21:04;;;;;;;3.17;2.67;;;;;;;;;;5057226;28;20656;-83
2021/08/18 06:23:33;;;;;;;3.80;2.57;;;;;;;;;;5043696;28;20424;-84
2021/08/18 06:25:59;;;;;;;6.03;2.50;;;;;;;;;;5048197;28;20494;-84
2021/08/18 06:28:25;;;;;;;5.13;2.67;;;;;;;;;;5049918;28;20679;-85
2021/08/18 06:30:53;;;;;;;4.68;2.35;;;;;;;;;;5053180;28;20459;-85
2021/08/18 06:33:19;;;;;;;3.25;2.95;;;;;;;;;;5040538;28;20232;-83
2021/08/18 06:35:45;;;;;;;8.60;2.83;;;;;;;;;;5056877;28;20288;-83
2021/08/18 06:38:11;;;;;;;4.35;3.25;;;;;;;;;;5046975;28;20173;-83
2021/08/18 06:40:37;;;;;;;3.33;2.38;;;;;;;;;;5044945;28;20185;-84
2021/08/18 06:43:03;;;;;;;5.28;2.53;;;;;;;;;;5043830;28;20189;-84
2021/08/18 06:45:29;;;;;;;2.50;2.30;;;;;;;;;;5045907;28;20189;-83
2021/08/18 06:47:55;;;;;;;3.70;2.53;;;;;;;;;;5039756;28;20194;-84
2021/08/18 06:50:22;;;;;;;3.45;2.40;;;;;;;;;;5045187;28;20687;-83
2021/08/18 06:52:48;;;;;;;2.80;2.30;;;;;;;;;;5050032;28;20237;-82
2021/08/18 06:55:14;;;;;;;3.60;2.53;;;;;;;;;;5050160;28;20185;-83
2021/08/18 06:57:40;;;;;;;3.80;2.13;;;;;;;;;;5049315;28;20511;-85
2021/08/18 07:00:07;;;;;;;2.90;2.40;;;;;;;;;;5046380;28;20465;-84
2021/08/18 07:02:33;;;;;;;3.08;2.47;;;;;;;;;;5045154;28;20189;-83
2021/08/18 07:05:04;;;;;;;2.30;2.10;;;;;;;;;;5059752;28;20219;-84
2021/08/18 07:07:30;;;;;;;4.20;2.50;;;;;;;;;;5049512;28;20197;-84
2021/08/18 07:09:56;;;;;;;4.70;2.07;;;;;;;;;;5049585;28;20676;-84
2021/08/18 07:12:22;;;;;;;3.23;2.63;;;;;;;;;;5061215;28;20470;-84
2021/08/18 07:14:49;;;;;;;3.50;2.10;;;;;;;;;;5042752;28;20485;-85
2021/08/18 07:17:15;;;;;;;2.95;2.03;;;;;;;;;;5056499;28;20495;-84
2021/08/18 07:19:41;;;;;;;3.40;2.40;;;;;;;;;;5053150;28;20209;-84
2021/08/18 07:22:07;;;;;;;3.47;2.33;;;;;;;;;;5054327;28;20442;-84
2021/08/18 07:24:35;;;;;;;2.88;1.92;;;;;;;;;;5056178;28;20432;-84
2021/08/18 07:27:03;;;;;;;3.58;2.05;;;;;;;;;;5059307;28;20182;-84
2021/08/18 07:29:29;;;;;;;3.88;2.20;;;;;;;;;;5046491;28;20174;-85
2021/08/18 07:31:55;;;;;;;2.20;2.10;;;;;;;;;;5056577;28;20244;-84
2021/08/18 07:34:21;;;;;;;2.47;2.13;;;;;;;;;;5051972;28;20193;-82
2021/08/18 07:36:47;;;;;;;2.70;2.00;;;;;;;;;;5048259;28;20472;-85
2021/08/18 07:39:13;;;;;;;2.20;2.00;;;;;;;;;;5047959;28;20493;-82
2021/08/18 07:41:39;;;;;;;2.47;2.27;;;;;;;;;;5061802;28;20201;-84
2021/08/18 07:44:05;;;;;;;5.70;3.35;;;;;;;;;;5050170;28;20417;-82
2021/08/18 07:46:31;;;;;;;2.37;1.93;;;;;;;;;;5057309;28;20209;-85
2021/08/18 07:48:57;;;;;;;2.53;2.33;;;;;;;;;;5055023;28;20959;-83
2021/08/18 07:51:23;;;;;;;2.60;2.30;;;;;;;;;;5048640;28;20439;-84
2021/08/18 07:53:49;;;;;;;3.35;2.10;;;;;;;;;;5042394;28;20551;-83
2021/08/18 07:56:15;;;;;;;3.83;2.37;;;;;;;;;;5050982;28;20275;-83
2021/08/18 07:58:41;;;;;;;2.83;2.00;;;;;;;;;;5059136;28;20565;-83
2021/08/18 08:01:07;;;;;;;3.33;2.50;;;;;;;;;;5054484;28;20447;-83
2021/08/18 08:03:33;;;;;;;3.03;2.35;;;;;;;;;;5057360;28;20455;-83
2021/08/18 08:05:59;;;;;;;2.70;2.50;;;;;;;;;;5060254;28;20185;-83
2021/08/18 08:08:25;;;;;;;2.78;2.28;;;;;;;;;;5046124;28;20166;-83
2021/08/18 08:10:51;;;;;;;2.70;2.50;;;;;;;;;;5049047;28;20173;-83
2021/08/18 08:13:17;;;;;;;2.73;2.50;;;;;;;;;;5047396;28;20443;-82
2021/08/18 08:15:43;;;;;;;2.33;2.10;;;;;;;;;;5047717;28;20437;-84
2021/08/18 08:18:10;;;;;;;4.50;2.55;;;;;;;;;;5046257;28;20475;-83
2021/08/18 08:20:39;;;;;;;2.72;2.53;;;;;;;;;;5045375;28;20189;-83
2021/08/18 08:23:05;;;;;;;2.90;2.70;;;;;;;;;;5058718;28;20167;-83
2021/08/18 08:25:32;;;;;;;2.40;2.20;;;;;;;;;;5054393;28;20664;-84
2021/08/18 08:27:58;;;;;;;3.33;2.75;;;;;;;;;;5053692;28;20768;-83
2021/08/18 08:30:24;;;;;;;2.80;2.60;;;;;;;;;;5047556;28;20192;-83
2021/08/18 08:32:50;;;;;;;3.60;2.65;;;;;;;;;;5041185;28;20186;-83
2021/08/18 08:35:16;;;;;;;4.63;2.75;;;;;;;;;;5060542;28;20260;-84
2021/08/18 08:37:42;;;;;;;2.55;2.35;;;;;;;;;;5048137;28;20197;-83
2021/08/18 08:40:08;;;;;;;3.03;2.80;;;;;;;;;;5047530;28;20205;-84
2021/08/18 08:42:37;;;;;;;2.95;2.75;;;;;;;;;;5047926;28;20204;-84
2021/08/18 08:45:04;;;;;;;2.80;2.55;;;;;;;;;;5042725;28;20236;-83
2021/08/18 08:47:30;;;;;;;2.15;1.70;;;;;;;;;;5045995;28;20178;-84
2021/08/18 08:49:56;;;;;;;4.40;2.60;;;;;;;;;;5047380;28;20182;-84
2021/08/18 08:52:23;;;;;;;2.75;2.20;;;;;;;;;;5055892;28;20221;-83
2021/08/18 08:54:49;;;;;;;3.10;2.40;;;;;;;;;;5055096;28;20182;-83
2021/08/18 08:57:15;;;;;;;2.90;2.38;;;;;;;;;;5047247;28;20212;-84
2021/08/18 08:59:41;;;;;;;2.53;2.33;;;;;;;;;;5041576;28;20206;-84
2021/08/18 09:02:12;;;;;;;2.80;2.53;;;;;;;;;;5048026;28;20179;-84
2021/08/18 09:04:39;;;;;;;2.53;2.08;;;;;;;;;;5047502;28;20189;-84
2021/08/18 09:07:05;;;;;;;2.25;2.00;;;;;;;;;;5048979;28;20191;-83
2021/08/18 09:09:32;;;;;;;2.20;2.00;;;;;;;;;;5057022;28;20202;-85
2021/08/18 09:12:07;;;;;;;1.85;1.70;;;;;;;;;;5043753;28;20191;-85
2021/08/18 09:14:33;;;;;;;2.13;2.00;;;;;;;;;;5042461;28;20205;-83
2021/08/18 09:16:59;;;;;;;2.85;1.95;;;;;;;;;;5058615;28;20209;-83
2021/08/18 09:19:30;;;;;;;2.60;1.95;;;;;;;;;;5047471;28;20221;-84
2021/08/18 09:22:04;;;;;;;3.17;2.25;;;;;;;;;;5047549;28;20194;-84
2021/08/18 09:24:30;;;;;;;2.20;2.00;;;;;;;;;;5044080;28;20171;-84
2021/08/18 09:27:06;;;;;;;3.10;1.95;;;;;;;;;;5056455;28;20395;-82
2021/08/18 09:29:45;;;;;;;1.90;1.65;;;;;;;;;;5043535;28;20182;-83
2021/08/18 09:32:18;;;;;;;2.00;1.75;;;;;;;;;;5060976;28;20180;-83
2021/08/18 09:34:51;;;;;;;3.20;1.85;;;;;;;;;;5046998;28;20176;-83
2021/08/18 09:37:17;;;;;;;1.85;1.75;;;;;;;;;;5052997;28;20695;-83
2021/08/18 09:39:43;;;;;;;3.50;1.90;;;;;;;;;;5053120;28;20226;-83
2021/08/18 09:42:29;;;;;;;2.10;1.50;;;;;;;;;;5057392;28;22334;-84
2021/08/18 09:45:09;;;;;;;2.65;2.05;;;;;;;;;;5042955;28;20445;-83
2021/08/18 09:47:35;;;;;;;2.15;1.95;;;;;;;;;;5042931;28;20174;-83
2021/08/18 09:50:01;;;;;;;2.38;2.17;;;;;;;;;;5047030;28;20178;-83
2021/08/18 09:52:27;;;;;;;2.30;2.13;;;;;;;;;;5046502;28;20281;-83
2021/08/18 09:54:53;;;;;;;2.65;2.13;;;;;;;;;;5047048;28;20186;-83
2021/08/18 09:57:29;;;;;;;3.67;3.07;;;;;;;;;;5045625;28;20218;-83
2021/08/18 09:59:56;;;;;;;2.33;2.03;;;;;;;;;;5025518;28;20883;-83
2021/08/18 10:02:23;;;;;;;3.88;2.35;;;;;;;;;;5058852;28;20431;-83
2021/08/18 10:04:49;;;;;;;2.55;2.35;;;;;;;;;;5059587;28;20174;-84
2021/08/18 10:07:15;;;;;;;3.20;2.90;;;;;;;;;;5057445;28;20217;-84
2021/08/18 10:09:41;;;;;;;4.30;3.30;;;;;;;;;;5050850;28;20252;-83
2021/08/18 10:12:09;;;;;;;4.07;3.30;;;;;;;;;;5056290;28;20252;-84
2021/08/18 10:14:35;;;;;;;3.75;3.45;;;;;;;;;;5043699;28;20416;-84
2021/08/18 10:17:01;;;;;;;3.75;3.35;;;;;;;;;;5046613;28;20214;-84
2021/08/18 10:19:27;;;;;;;3.90;3.50;;;;;;;;;;5044595;28;20397;-83
2021/08/18 10:21:58;;;;;;;4.25;3.85;;;;;;;;;;5045602;28;20442;-85
2021/08/18 10:24:29;;;;;;;3.95;3.55;;;;;;;;;;5057272;28;20557;-83
2021/08/18 10:26:55;;;;;;;4.45;3.72;;;;;;;;;;5038454;28;20292;-83
2021/08/18 10:29:30;;;;;;;5.03;4.63;;;;;;;;;;5057180;28;20195;-84
2021/08/18 10:32:03;;;;;;;5.00;4.30;;;;;;;;;;5045149;28;20240;-84
2021/08/18 10:34:36;;;;;;;5.47;4.63;;;;;;;;;;5050734;28;20192;-84
2021/08/18 10:37:19;;;;;;;5.28;4.60;;;;;;;;;;5050713;28;20243;-84
2021/08/18 10:39:52;;;;;;;4.60;4.20;;;;;;;;;;5044133;28;20204;-84
2021/08/18 10:42:37;;;;;;;5.50;4.25;;;;;;;;;;5045286;28;20184;-83
2021/08/18 10:45:23;;;;;;;5.38;4.88;;;;;;;;;;5027528;28;20181;-83
2021/08/18 10:47:50;;;;;;;5.22;4.72;;;;;;;;;;5026387;28;20248;-82
2021/08/18 10:50:23;;;;;;;8.57;4.75;;;;;;;;;;5071224;28;20196;-84
2021/08/18 10:52:50;;;;;;;5.25;4.72;;;;;;;;;;5044487;28;20178;-84
2021/08/18 10:55:25;;;;;;;7.07;5.00;;;;;;;;;;5039517;28;20193;-82
2021/08/18 10:57:51;;;;;;;5.40;4.90;;;;;;;;;;5042812;28;20192;-83
2021/08/18 11:00:24;;;;;;;5.33;4.87;;;;;;;;;;5053387;28;20205;-83
2021/08/18 11:02:57;;;;;;;14.20;7.00;;;;;;;;;;5025665;28;20452;-83
2021/08/18 11:05:30;;;;;;;5.07;4.63;;;;;;;;;;5061925;28;20172;-83
2021/08/18 11:08:00;;;;;;;6.10;5.50;;;;;;;;;;5059437;28;20169;-84
2021/08/18 11:10:27;;;;;;;5.45;4.60;;;;;;;;;;5045533;28;20201;-81
2021/08/18 11:12:56;;;;;;;5.10;4.25;;;;;;;;;;5043698;28;20202;-83
2021/08/18 11:15:22;;;;;;;6.75;5.13;;;;;;;;;;5046086;28;20648;-82
2021/08/18 11:17:49;;;;;;;5.33;4.87;;;;;;;;;;5037347;28;20232;-81
2021/08/18 11:20:22;;;;;;;4.32;3.90;;;;;;;;;;5053754;28;20466;-84
2021/08/18 11:22:58;;;;;;;5.70;4.07;;;;;;;;;;5043721;28;20178;-83
2021/08/18 11:25:24;;;;;;;5.07;4.60;;;;;;;;;;5054295;28;20190;-83
2021/08/18 11:27:51;;;;;;;4.55;4.15;;;;;;;;;;5037521;28;20461;-83
2021/08/18 11:30:24;;;;;;;5.82;4.90;;;;;;;;;;5044673;28;20185;-82
2021/08/18 11:32:50;;;;;;;5.68;5.18;;;;;;;;;;5038148;28;20213;-82
2021/08/18 11:35:30;;;;;;;6.00;4.40;;;;;;;;;;5046794;28;20288;-83
2021/08/18 11:38:06;;;;;;;6.13;4.47;;;;;;;;;;5052890;28;20423;-83
2021/08/18 11:40:32;;;;;;;5.73;5.00;;;;;;;;;;5049851;28;20981;-81
2021/08/18 11:42:58;;;;;;;9.20;5.53;;;;;;;;;;5048756;28;20504;-84
2021/08/18 11:45:25;;;;;;;6.20;4.03;;;;;;;;;;5045031;28;20444;-82
2021/08/18 11:47:51;;;;;;;11.23;4.40;;;;;;;;;;5058557;28;20452;-84
2021/08/18 11:50:18;;;;;;;5.10;4.53;;;;;;;;;;5049450;28;20460;-84
2021/08/18 11:52:44;;;;;;;4.77;3.90;;;;;;;;;;5046836;28;20402;-84
2021/08/18 11:55:11;;;;;;;7.20;4.47;;;;;;;;;;5048791;28;20681;-84
2021/08/18 11:57:37;;;;;;;4.27;3.97;;;;;;;;;;5047877;28;20418;-83
2021/08/18 12:00:06;;;;;;;5.90;4.40;;;;;;;;;;5042368;28;20551;-86
2021/08/18 12:02:37;;;;;;;4.10;3.70;;;;;;;;;;5043364;28;20955;-82
2021/08/18 12:05:04;;;;;;;9.07;4.00;;;;;;;;;;5047674;28;20450;-83
2021/08/18 12:07:32;;;;;;;5.30;4.27;;;;;;;;;;5053263;28;20442;-85
2021/08/18 12:10:26;;;;;;;6.40;4.53;;;;;;;;;;5055249;28;20461;-84
2021/08/18 12:13:05;;;;;;;5.57;5.07;;;;;;;;;;5055869;28;20437;-81
2021/08/18 12:15:41;;;;;;;7.97;5.00;;;;;;;;;;5045250;28;20398;-83
2021/08/18 12:18:26;;;;;;;5.70;4.13;;;;;;;;;;5059606;28;20506;-84
2021/08/18 12:20:52;;;;;;;4.70;3.80;;;;;;;;;;5027499;28;20439;-84
2021/08/18 12:23:25;;;;;;;6.03;4.10;;;;;;;;;;5048315;28;20387;-84
2021/08/18 12:25:51;;;;;;;4.00;3.70;;;;;;;;;;5061531;28;20421;-83
2021/08/18 12:28:18;;;;;;;6.37;4.10;;;;;;;;;;5047838;28;20431;-82
2021/08/18 12:31:01;;;;;;;4.13;3.80;;;;;;;;;;5059576;28;20534;-84
2021/08/18 12:33:28;;;;;;;5.70;3.53;;;;;;;;;;5057687;28;20463;-83
2021/08/18 12:36:08;;;;;;;3.90;3.60;;;;;;;;;;5058996;28;20444;-84
2021/08/18 12:38:34;;;;;;;3.73;3.43;;;;;;;;;;5044273;28;20432;-84
2021/08/18 12:41:04;;;;;;;4.30;3.13;;;;;;;;;;5057646;28;20394;-85
2021/08/18 12:43:30;;;;;;;3.90;3.30;;;;;;;;;;5049900;28;20415;-86
2021/08/18 12:45:56;;;;;;;3.53;3.30;;;;;;;;;;5047735;28;20684;-82
2021/08/18 12:48:26;;;;;;;3.77;3.47;;;;;;;;;;5046056;28;20476;-83
2021/08/18 12:50:55;;;;;;;3.33;2.73;;;;;;;;;;5040037;28;20409;-84
2021/08/18 12:53:21;;;;;;;3.00;2.80;;;;;;;;;;5047258;28;20427;-83
2021/08/18 12:55:48;;;;;;;3.70;3.40;;;;;;;;;;5060884;28;20391;-85
2021/08/18 12:58:21;;;;;;;4.57;3.27;;;;;;;;;;5043350;28;20487;-84
2021/08/18 13:00:47;;;;;;;6.90;3.47;;;;;;;;;;5045998;28;20464;-82
2021/08/18 13:03:13;;;;;;;6.03;4.30;;;;;;;;;;5058165;28;20418;-83
2021/08/18 13:05:39;;;;;;;6.10;4.43;;;;;;;;;;5058111;28;20435;-84
2021/08/18 13:08:05;;;;;;;5.00;4.50;;;;;;;;;;5048174;28;20446;-84
2021/08/18 13:10:32;;;;;;;5.90;4.53;;;;;;;;;;5047327;28;20413;-85
2021/08/18 13:13:00;;;;;;;7.60;4.60;;;;;;;;;;5046960;28;20930;-85
2021/08/18 13:15:26;;;;;;;5.23;4.73;;;;;;;;;;5047650;28;20440;-84
2021/08/18 13:17:52;;;;;;;4.73;4.33;;;;;;;;;;5040086;28;20446;-84
2021/08/18 13:20:18;;;;;;;5.43;4.93;;;;;;;;;;5060591;28;21045;-85
2021/08/18 13:22:44;;;;;;;5.60;5.10;;;;;;;;;;5053844;28;20394;-84
2021/08/18 13:25:10;;;;;;;6.30;4.13;;;;;;;;;;5051612;28;20490;-84
2021/08/18 13:27:37;;;;;;;4.97;4.53;;;;;;;;;;5046643;28;20402;-84
2021/08/18 13:30:03;;;;;;;4.33;3.93;;;;;;;;;;5043117;28;20478;-84
2021/08/18 13:32:29;;;;;;;6.50;4.40;;;;;;;;;;5044305;28;20417;-84
2021/08/18 13:34:56;;;;;;;4.20;3.83;;;;;;;;;;5047140;28;20424;-84
2021/08/18 13:37:22;;;;;;;3.77;3.47;;;;;;;;;;5046993;28;20419;-84
2021/08/18 13:39:49;;;;;;;4.10;3.80;;;;;;;;;;5047133;28;20464;-83
2021/08/18 13:42:15;;;;;;;4.60;3.13;;;;;;;;;;5045988;28;20445;-83
2021/08/18 13:44:41;;;;;;;4.37;3.83;;;;;;;;;;5041273;28;20811;-84
2021/08/18 13:47:07;;;;;;;6.00;4.07;;;;;;;;;;5047514;28;20451;-84
2021/08/18 13:49:33;;;;;;;4.10;3.70;;;;;;;;;;5046132;28;20426;-84
2021/08/18 13:51:59;;;;;;;5.20;3.93;;;;;;;;;;5046362;28;20411;-84
2021/08/18 13:54:25;;;;;;;6.53;4.30;;;;;;;;;;5046332;28;20406;-83
2021/08/18 13:56:54;;;;;;;3.40;3.10;;;;;;;;;;5042705;28;20464;-83
2021/08/18 13:59:20;;;;;;;5.30;3.70;;;;;;;;;;5048278;28;20471;-82
2021/08/18 14:01:46;;;;;;;4.10;3.70;;;;;;;;;;5056297;28;20400;-84
2021/08/18 14:04:12;;;;;;;4.17;3.87;;;;;;;;;;5041565;28;20439;-84
2021/08/18 14:06:39;;;;;;;4.63;4.10;;;;;;;;;;5043760;28;20427;-85
2021/08/18 14:09:05;;;;;;;4.00;3.37;;;;;;;;;;5057453;28;20987;-85
2021/08/18 14:11:31;;;;;;;4.00;3.40;;;;;;;;;;5061530;28;20447;-85
2021/08/18 14:13:57;;;;;;;4.50;3.50;;;;;;;;;;5046870;28;20391;-83
2021/08/18 14:16:24;;;;;;;3.00;2.70;;;;;;;;;;5045263;28;20437;-84
2021/08/18 14:18:50;;;;;;;3.20;2.90;;;;;;;;;;5044245;28;20458;-84
2021/08/18 14:21:17;;;;;;;5.43;3.30;;;;;;;;;;5057098;28;20426;-84
2021/08/18 14:23:43;;;;;;;3.80;3.40;;;;;;;;;;5056588;28;20418;-84
2021/08/18 14:26:10;;;;;;;3.93;3.20;;;;;;;;;;5047214;28;20455;-84
2021/08/18 14:28:36;;;;;;;5.20;3.50;;;;;;;;;;5046061;28;20407;-84
2021/08/18 14:31:02;;;;;;;3.93;3.53;;;;;;;;;;5046013;28;20413;-83
2021/08/18 14:33:28;;;;;;;4.13;3.73;;;;;;;;;;5044555;28;20435;-84
2021/08/18 14:35:55;;;;;;;4.53;3.90;;;;;;;;;;5040441;28;20722;-85
2021/08/18 14:38:21;;;;;;;4.57;3.50;;;;;;;;;;5046662;28;20416;-84
2021/08/18 14:40:49;;;;;;;4.83;4.33;;;;;;;;;;5046191;28;20471;-84
2021/08/18 14:43:15;;;;;;;3.53;3.10;;;;;;;;;;5045974;28;20450;-84